Open Full Screen Window  High Contrast Mode
Wind Gusting 21 knots
13
February 09, 2016 5:35 AM CST
Weather Information
Wind Direction
  350 °
Wind Speed
  13 kt (15 mph)
Wind Gust
  21 kt (24 mph)
Altimeter
30.18 in
Visibility
10 SM
Temperature
-15° C
F
Dewpoint
-16° C
F
Humidity
92%
1hr Rain Fall
00.00 in.
24hr Rain Fall
01.29 in.
Sky Condition
Clear
VFR

METAR KMDS 091135Z AUTO 35013G21KT 10SM CLR M15/M16 A3018 RMK AO2

*Background is not an actual portrayal of the airport.